Terminal Aerodrome Forecast
Issued by NWS

Home | Current Version | Previous Version | Text Only | Print | Product List | Glossary On
Versions: 1 2 3 4 5 6 7 8 9 10 11 12 13 14 15 16 17 18 19 20 21 22 23 24 25 26 27 28 29 30 31 32
000
FTUS43 KLOT 241700
TAFDPA
TAF
KDPA 241727Z 2418/2518 03008KT P6SM FEW250
     FM250200 10004KT P6SM FEW250
     FM250500 VRB03KT P6SM FEW200
     FM250800 17005KT P6SM SCT200
     FM251700 20009KT P6SM SCT025 BKN060 PROB30 2517/2518 -TSRA
      BKN025CB=

USA.gov is the U.S. government's official web portal to all federal, state and local government web resources and services.